Time;durP1;ratioP1;P1;durP2;ratioP2;P2;SDS_P1;SDS_P2;PMS_P1;PMS_P2;Temp;Humidity;BMP_temperature;BMP_pressure;BME280_temperature;BME280_humidity;BME280_pressure;Samples;Min_cycle;Max_cycle;Signal;HPM_P1;HPM_P2
2022/06/21 00:00:28;;;;;;;;;;;;;;;15.12;60.97;101193.06;5063873;28;19931;-77
2022/06/21 00:02:56;;;;;;;;;;;;;;;15.04;61.54;101197.66;5065202;28;20318;-77
2022/06/21 00:05:34;;;;;;;;;;;;;;;14.95;61.94;101200.59;5067824;28;19925;-76
2022/06/21 00:07:59;;;;;;;;;;;;;;;15.02;61.11;101200.34;5063287;28;20372;-76
2022/06/21 00:10:25;;;;;;;;;;;;;;;15.01;61.04;101201.22;5067542;28;19928;-76
2022/06/21 00:12:50;;;;;;;;;;;;;;;14.95;62.08;101195.38;5065617;28;19986;-76
2022/06/21 00:15:15;;;;;;;;;;;;;;;14.94;61.94;101194.50;5063033;28;19924;-76
2022/06/21 00:17:43;;;;;;;;;;;;;;;14.83;61.92;101194.84;5062820;28;19920;-78
2022/06/21 00:20:13;;;;;;;;;;;;;;;14.93;62.69;101198.03;5066735;28;20333;-77
2022/06/21 00:22:39;;;;;;;;;;;;;;;15.04;61.89;101195.03;5066805;28;19993;-77
2022/06/21 00:25:30;;;;;;;;;;;;;;;15.05;61.34;101202.00;5064844;28;20379;-76
2022/06/21 00:27:56;;;;;;;;;;;;;;;14.95;61.29;101198.00;5070228;28;19954;-77
2022/06/21 00:30:22;;;;;;;;;;;;;;;14.92;61.28;101200.69;5067468;28;20019;-77
2022/06/21 00:32:49;;;;;;;;;;;;;;;14.88;61.90;101194.72;5065370;28;19959;-77
2022/06/21 00:35:20;;;;;;;;;;;;;;;14.84;62.83;101191.31;5066996;28;19965;-76
2022/06/21 00:37:47;;;;;;;;;;;;;;;14.80;62.95;101191.44;5062696;28;19988;-76
2022/06/21 00:40:25;;;;;;;;;;;;;;;14.90;62.58;101187.66;5068364;28;19945;-76
2022/06/21 00:43:06;;;;;;;;;;;;;;;14.93;62.01;101191.94;5064232;28;20054;-76
2022/06/21 00:45:49;;;;;;;;;;;;;;;14.78;62.92;101177.59;5067044;28;20352;-76
2022/06/21 00:48:34;;;;;;;;;;;;;;;14.81;62.60;101180.97;5066607;28;19953;-76
2022/06/21 00:51:08;;;;;;;;;;;;;;;14.85;62.20;101186.97;5066532;28;20014;-76
2022/06/21 00:53:37;;;;;;;;;;;;;;;14.76;61.89;101189.88;5067660;28;19916;-76
2022/06/21 00:56:05;;;;;;;;;;;;;;;14.73;62.80;101184.69;5065751;28;19930;-78
2022/06/21 00:58:31;;;;;;;;;;;;;;;14.81;62.29;101183.56;5065884;28;19960;-79
2022/06/21 01:01:01;;;;;;;;;;;;;;;14.66;62.13;101180.53;5065247;28;19963;-78
2022/06/21 01:03:38;;;;;;;;;;;;;;;14.65;62.05;101184.09;5069390;28;20341;-78
2022/06/21 01:06:06;;;;;;;;;;;;;;;14.70;62.66;101175.19;5065073;28;20569;-79
2022/06/21 01:08:34;;;;;;;;;;;;;;;14.82;62.34;101176.59;5071624;28;19916;-78
2022/06/21 01:11:01;;;;;;;;;;;;;;;14.57;62.11;101180.81;5063193;28;19924;-78
2022/06/21 01:13:28;;;;;;;;;;;;;;;14.48;62.66;101181.97;5067706;28;19928;-79
2022/06/21 01:15:54;;;;;;;;;;;;;;;14.56;63.35;101184.38;5067909;28;19970;-78
2022/06/21 01:18:21;;;;;;;;;;;;;;;14.69;62.33;101183.94;5063934;28;19924;-78
2022/06/21 01:20:48;;;;;;;;;;;;;;;14.68;62.67;101182.22;5067702;28;19928;-78
2022/06/21 01:23:19;;;;;;;;;;;;;;;14.59;63.33;101177.25;5065565;28;20439;-79
2022/06/21 01:25:45;;;;;;;;;;;;;;;14.57;62.97;101173.84;5065711;28;20437;-79
2022/06/21 01:28:11;;;;;;;;;;;;;;;14.61;62.54;101175.47;5069852;28;19928;-78
2022/06/21 01:30:37;;;;;;;;;;;;;;;14.55;63.51;101165.22;5063835;28;19960;-78
2022/06/21 01:33:03;;;;;;;;;;;;;;;14.62;62.91;101176.34;5070230;28;20387;-78
2022/06/21 01:35:57;;;;;;;;;;;;;;;14.60;63.02;101176.38;5064865;28;19925;-78
2022/06/21 01:38:24;;;;;;;;;;;;;;;14.42;62.74;101178.69;5050529;28;19971;-78
2022/06/21 01:40:53;;;;;;;;;;;;;;;14.34;63.07;101171.09;5061601;28;19932;-78
2022/06/21 01:43:23;;;;;;;;;;;;;;;14.41;62.75;101162.16;5067579;28;19925;-75
2022/06/21 01:45:56;;;;;;;;;;;;;;;14.26;63.27;101158.22;5065028;28;19924;-78
2022/06/21 01:48:23;;;;;;;;;;;;;;;14.19;63.11;101151.50;5066414;28;19960;-78
2022/06/21 01:50:50;;;;;;;;;;;;;;;14.16;62.82;101138.53;5062956;28;19922;-78
2022/06/21 01:53:18;;;;;;;;;;;;;;;14.20;62.78;101149.75;5061030;28;19917;-78
2022/06/21 01:55:53;;;;;;;;;;;;;;;14.35;62.70;101146.66;5062856;28;19920;-78
2022/06/21 01:58:20;;;;;;;;;;;;;;;14.48;62.31;101150.59;5060453;28;19934;-79
2022/06/21 02:01:04;;;;;;;;;;;;;;;14.34;62.12;101144.94;5061517;28;20099;-79
2022/06/21 02:03:31;;;;;;;;;;;;;;;14.06;63.13;101152.75;5065956;28;19925;-78
2022/06/21 02:05:59;;;;;;;;;;;;;;;14.19;62.62;101155.84;5063983;28;20400;-74
2022/06/21 02:08:27;;;;;;;;;;;;;;;14.19;62.25;101155.84;5065721;28;20404;-75
2022/06/21 02:10:59;;;;;;;;;;;;;;;14.13;61.88;101164.75;5063310;28;20279;-75
2022/06/21 02:13:28;;;;;;;;;;;;;;;14.21;62.03;101159.28;5062425;28;19928;-75
2022/06/21 02:15:56;;;;;;;;;;;;;;;14.22;62.01;101163.59;5061307;28;20354;-75
2022/06/21 02:18:22;;;;;;;;;;;;;;;14.05;62.72;101158.88;5058928;28;19966;-78
2022/06/21 02:21:24;;;;;;;;;;;;;;;14.18;63.01;101154.13;5061283;28;20331;-78
2022/06/21 02:23:51;;;;;;;;;;;;;;;14.15;62.97;101162.06;5020521;28;19921;-78
2022/06/21 02:26:16;;;;;;;;;;;;;;;14.09;62.98;101157.03;5049892;28;19916;-79
2022/06/21 02:28:42;;;;;;;;;;;;;;;14.01;63.68;101151.16;5061794;28;20280;-77
2022/06/21 02:31:08;;;;;;;;;;;;;;;14.04;63.45;101161.53;5068667;28;19924;-77
2022/06/21 02:33:33;;;;;;;;;;;;;;;14.16;62.68;101154.19;5067794;28;19974;-77
2022/06/21 02:36:01;;;;;;;;;;;;;;;14.18;63.26;101148.91;5066479;28;19920;-77
2022/06/21 02:38:33;;;;;;;;;;;;;;;14.18;62.58;101138.47;5063026;28;19917;-77
2022/06/21 02:41:04;;;;;;;;;;;;;;;14.18;62.63;101143.69;5068662;28;19927;-77
2022/06/21 02:43:43;;;;;;;;;;;;;;;14.08;63.45;101137.03;5064217;28;19928;-77
2022/06/21 02:46:24;;;;;;;;;;;;;;;14.24;63.19;101125.22;5068342;28;20306;-77
2022/06/21 02:48:52;;;;;;;;;;;;;;;14.28;63.67;101122.47;5069459;28;19927;-77
2022/06/21 02:51:21;;;;;;;;;;;;;;;13.98;63.82;101132.97;5068397;28;19955;-77
2022/06/21 02:53:59;;;;;;;;;;;;;;;14.09;63.47;101136.97;5065713;28;19917;-77
2022/06/21 02:56:24;;;;;;;;;;;;;;;14.10;63.34;101135.22;5068268;28;19912;-77
2022/06/21 02:58:51;;;;;;;;;;;;;;;13.98;63.28;101126.00;5070360;28;19970;-77
2022/06/21 03:01:37;;;;;;;;;;;;;;;14.04;63.15;101128.44;5064919;28;20460;-77
2022/06/21 03:04:03;;;;;;;;;;;;;;;14.01;64.19;101120.69;5067350;28;19924;-77
2022/06/21 03:06:30;;;;;;;;;;;;;;;14.06;63.87;101123.16;5067066;28;19974;-76
2022/06/21 03:09:00;;;;;;;;;;;;;;;13.95;64.09;101113.03;5061134;28;19916;-77
2022/06/21 03:11:28;;;;;;;;;;;;;;;13.91;63.27;101124.44;5068932;28;19975;-77
2022/06/21 03:13:54;;;;;;;;;;;;;;;13.95;63.02;101120.00;5070559;28;19916;-76
2022/06/21 03:16:21;;;;;;;;;;;;;;;13.77;63.79;101122.25;5065518;28;19968;-76
2022/06/21 03:18:51;;;;;;;;;;;;;;;13.87;63.10;101127.22;5068680;28;19924;-76
2022/06/21 03:21:26;;;;;;;;;;;;;;;13.74;63.30;101134.53;5069069;28;19921;-78
2022/06/21 03:23:52;;;;;;;;;;;;;;;13.70;62.89;101135.53;5068057;28;19927;-77
2022/06/21 03:26:17;;;;;;;;;;;;;;;13.94;62.72;101129.59;5063514;28;19923;-77
2022/06/21 03:28:45;;;;;;;;;;;;;;;13.86;62.62;101122.88;5067011;28;19925;-77
2022/06/21 03:31:20;;;;;;;;;;;;;;;13.60;63.39;101131.44;5061525;28;19924;-77
2022/06/21 03:33:49;;;;;;;;;;;;;;;13.90;62.07;101132.34;5065859;28;19920;-77
2022/06/21 03:36:17;;;;;;;;;;;;;;;13.68;62.75;101126.88;5066288;28;20591;-76
2022/06/21 03:38:46;;;;;;;;;;;;;;;13.74;62.99;101124.09;5066563;28;19916;-77
2022/06/21 03:44:00;;;;;;;;;;;;;;;13.76;63.33;101130.97;5065124;28;20012;-76
2022/06/21 03:46:32;;;;;;;;;;;;;;;13.82;63.05;101135.16;5064394;28;19925;-76
2022/06/21 03:49:01;;;;;;;;;;;;;;;13.80;62.61;101125.66;5065459;28;19959;-76
2022/06/21 03:51:32;;;;;;;;;;;;;;;13.78;62.89;101133.56;5063340;28;19952;-78
2022/06/21 03:54:04;;;;;;;;;;;;;;;13.88;62.40;101132.38;5065608;28;19928;-78
2022/06/21 03:56:32;;;;;;;;;;;;;;;13.81;62.02;101143.06;5066366;28;19925;-79
2022/06/21 03:59:18;;;;;;;;;;;;;;;13.71;63.88;101145.91;5062517;28;20406;-78
2022/06/21 04:01:53;;;;;;;;;;;;;;;13.75;64.02;101147.56;5063978;28;20465;-77
2022/06/21 04:04:27;;;;;;;;;;;;;;;13.80;63.43;101157.00;5068784;28;19925;-76
2022/06/21 04:07:02;;;;;;;;;;;;;;;13.77;63.76;101157.94;5077488;28;19923;-76
2022/06/21 04:09:46;;;;;;;;;;;;;;;13.74;63.86;101158.03;5067934;28;19927;-76
2022/06/21 04:12:30;;;;;;;;;;;;;;;13.86;63.83;101167.28;5069141;28;20400;-76
2022/06/21 04:15:03;;;;;;;;;;;;;;;13.64;63.61;101165.22;5061210;28;19944;-76
2022/06/21 04:17:34;;;;;;;;;;;;;;;13.70;63.87;101161.66;5062941;28;20070;-76
2022/06/21 04:20:19;;;;;;;;;;;;;;;13.81;63.59;101161.34;5064317;28;19921;-76
2022/06/21 04:22:53;;;;;;;;;;;;;;;13.70;64.54;101161.66;5066873;28;19924;-75
2022/06/21 04:25:18;;;;;;;;;;;;;;;13.77;64.33;101147.50;5062686;28;19951;-75
2022/06/21 04:28:02;;;;;;;;;;;;;;;13.94;63.56;101147.03;5059096;28;19994;-75
2022/06/21 04:30:40;;;;;;;;;;;;;;;13.98;63.14;101151.25;5065322;28;19928;-76
2022/06/21 04:33:10;;;;;;;;;;;;;;;13.91;64.13;101150.56;5064287;28;19920;-76
2022/06/21 04:35:57;;;;;;;;;;;;;;;13.87;64.20;101138.53;5063260;28;19935;-76
2022/06/21 04:38:25;;;;;;;;;;;;;;;13.86;64.69;101136.81;5063805;28;19928;-76
2022/06/21 04:40:56;;;;;;;;;;;;;;;13.92;64.51;101130.53;5065030;28;19929;-76
2022/06/21 04:43:29;;;;;;;;;;;;;;;13.95;64.66;101127.84;5063010;28;19936;-76
2022/06/21 04:46:03;;;;;;;;;;;;;;;13.98;64.58;101120.78;5062658;28;19920;-76
2022/06/21 04:48:28;;;;;;;;;;;;;;;13.78;65.13;101107.44;5066094;28;19972;-76
2022/06/21 04:50:53;;;;;;;;;;;;;;;13.93;64.04;101108.75;5065596;28;19971;-76
2022/06/21 04:53:58;;;;;;;;;;;;;;;13.94;64.13;101106.09;5060402;28;19923;-77
2022/06/21 04:56:36;;;;;;;;;;;;;;;13.90;64.78;101125.38;4981222;28;20075;-76
2022/06/21 04:59:08;;;;;;;;;;;;;;;14.07;64.76;101123.13;4977464;28;19925;-76
2022/06/21 05:01:33;;;;;;;;;;;;;;;13.99;64.99;101125.09;5033605;28;19928;-77
2022/06/21 05:04:12;;;;;;;;;;;;;;;13.90;65.58;101121.91;5061642;28;19932;-77
2022/06/21 05:06:40;;;;;;;;;;;;;;;13.99;65.33;101121.63;5064107;28;19921;-77
2022/06/21 05:09:06;;;;;;;;;;;;;;;13.93;64.71;101127.03;5061320;28;19925;-77
2022/06/21 05:11:32;;;;;;;;;;;;;;;13.86;66.33;101128.97;5067376;28;19921;-77
2022/06/21 05:13:59;;;;;;;;;;;;;;;13.89;65.54;101126.25;5061929;28;19928;-77
2022/06/21 05:16:30;;;;;;;;;;;;;;;13.93;65.57;101122.69;5063038;28;20033;-77
2022/06/21 05:19:02;;;;;;;;;;;;;;;14.06;65.61;101128.38;5063406;28;19920;-77
2022/06/21 05:21:33;;;;;;;;;;;;;;;14.08;66.07;101134.44;5063022;28;20007;-77
2022/06/21 05:23:58;;;;;;;;;;;;;;;14.04;65.81;101136.28;5048615;28;19932;-77
2022/06/21 05:26:28;;;;;;;;;;;;;;;14.22;65.25;101134.88;5064173;28;19932;-77
2022/06/21 05:29:08;;;;;;;;;;;;;;;14.15;65.71;101139.41;5066741;28;19920;-79
2022/06/21 05:31:37;;;;;;;;;;;;;;;14.20;64.96;101141.91;5059199;28;19921;-77
2022/06/21 05:34:10;;;;;;;;;;;;;;;14.36;64.86;101152.72;5069605;28;19917;-77
2022/06/21 05:36:40;;;;;;;;;;;;;;;14.11;65.56;101153.47;5068935;28;19920;-77
2022/06/21 05:39:12;;;;;;;;;;;;;;;14.23;65.07;101155.72;5069320;28;20388;-76
2022/06/21 05:41:43;;;;;;;;;;;;;;;14.22;65.63;101143.56;5061610;28;19916;-77
2022/06/21 05:44:13;;;;;;;;;;;;;;;14.19;66.07;101138.44;5059480;28;19931;-77
2022/06/21 05:46:41;;;;;;;;;;;;;;;14.23;65.21;101141.81;5068523;28;19921;-77
2022/06/21 05:49:13;;;;;;;;;;;;;;;14.44;64.79;101141.16;5064636;28;19978;-77
2022/06/21 05:51:38;;;;;;;;;;;;;;;14.41;64.52;101140.41;5060395;28;19924;-77
2022/06/21 05:54:04;;;;;;;;;;;;;;;14.32;65.10;101144.16;5059654;28;19921;-77
2022/06/21 05:56:31;;;;;;;;;;;;;;;14.30;65.18;101140.72;5065558;28;19963;-77
2022/06/21 05:59:17;;;;;;;;;;;;;;;14.39;65.92;101140.44;5064422;28;20425;-77
2022/06/21 06:01:50;;;;;;;;;;;;;;;14.37;65.71;101147.47;5068037;28;19924;-79
2022/06/21 06:04:18;;;;;;;;;;;;;;;14.42;65.33;101147.31;5052506;28;20078;-77
2022/06/21 06:06:44;;;;;;;;;;;;;;;14.54;65.04;101142.56;5077356;28;19927;-77
2022/06/21 06:09:13;;;;;;;;;;;;;;;14.53;65.37;101137.41;5062934;28;19921;-77
2022/06/21 06:11:57;;;;;;;;;;;;;;;14.55;65.51;101140.81;5064695;28;19920;-77
2022/06/21 06:14:26;;;;;;;;;;;;;;;14.51;64.34;101142.66;5062904;28;19931;-77
2022/06/21 06:16:53;;;;;;;;;;;;;;;14.55;64.29;101146.91;5066323;28;19921;-76
2022/06/21 06:19:25;;;;;;;;;;;;;;;14.69;64.29;101149.94;5077335;28;19996;-76
2022/06/21 06:21:53;;;;;;;;;;;;;;;14.54;64.16;101147.78;5075235;28;19998;-75
2022/06/21 06:24:21;;;;;;;;;;;;;;;14.53;63.68;101146.06;5071073;28;19925;-75
2022/06/21 06:26:49;;;;;;;;;;;;;;;14.62;63.60;101150.19;5066800;28;19924;-76
2022/06/21 06:29:15;;;;;;;;;;;;;;;14.63;63.11;101147.50;5068817;28;19945;-75
2022/06/21 06:31:51;;;;;;;;;;;;;;;14.79;62.47;101143.53;5065200;28;20018;-76
2022/06/21 06:34:19;;;;;;;;;;;;;;;14.68;62.65;101142.16;5067430;28;19978;-77
2022/06/21 06:36:48;;;;;;;;;;;;;;;14.74;62.93;101139.34;5071320;28;19924;-77
2022/06/21 06:39:19;;;;;;;;;;;;;;;14.69;63.30;101136.00;5065886;28;19921;-77
2022/06/21 06:42:02;;;;;;;;;;;;;;;14.70;62.76;101135.97;5068470;28;19923;-77
2022/06/21 06:44:28;;;;;;;;;;;;;;;14.77;63.29;101119.19;5067200;28;19979;-77
2022/06/21 06:46:55;;;;;;;;;;;;;;;14.81;63.21;101118.19;5067989;28;19928;-77
2022/06/21 06:49:47;;;;;;;;;;;;;;;14.88;63.03;101118.84;5066928;28;19932;-77
2022/06/21 06:52:41;;;;;;;;;;;;;;;14.79;62.42;101119.16;5061248;28;20563;-76
2022/06/21 06:55:07;;;;;;;;;;;;;;;14.97;61.58;101118.53;5042981;28;20527;-76
2022/06/21 06:57:32;;;;;;;;;;;;;;;15.00;61.54;101126.28;5068545;28;19971;-77
2022/06/21 06:59:59;;;;;;;;;;;;;;;15.01;61.36;101124.50;5066943;28;20020;-77
2022/06/21 07:02:33;;;;;;;;;;;;;;;15.02;61.63;101128.84;5070809;28;19916;-76
2022/06/21 07:05:04;;;;;;;;;;;;;;;14.97;60.24;101130.75;5071076;28;20020;-75
2022/06/21 07:07:39;;;;;;;;;;;;;;;15.00;61.12;101134.16;5071744;28;19921;-76
2022/06/21 07:10:08;;;;;;;;;;;;;;;15.03;61.07;101128.81;5066275;28;19920;-77
2022/06/21 07:12:34;;;;;;;;;;;;;;;15.04;61.06;101143.56;5067431;28;19927;-77
2022/06/21 07:14:59;;;;;;;;;;;;;;;15.05;60.51;101134.84;5073442;28;20008;-77
2022/06/21 07:17:32;;;;;;;;;;;;;;;15.07;60.70;101133.00;5076077;28;19917;-77
2022/06/21 07:19:58;;;;;;;;;;;;;;;15.13;61.43;101135.41;5062101;28;20040;-77
2022/06/21 07:22:26;;;;;;;;;;;;;;;15.21;60.76;101141.28;5073134;28;19921;-77
2022/06/21 07:25:01;;;;;;;;;;;;;;;15.09;60.72;101138.22;5064134;28;20007;-77
2022/06/21 07:27:28;;;;;;;;;;;;;;;15.15;61.08;101138.88;5065989;28;19931;-77
2022/06/21 07:29:56;;;;;;;;;;;;;;;15.25;60.46;101129.78;5066289;28;20007;-77
2022/06/21 07:32:26;;;;;;;;;;;;;;;15.28;61.00;101136.66;5064051;28;20750;-78
2022/06/21 07:34:55;;;;;;;;;;;;;;;15.24;61.03;101142.94;5065492;28;19920;-78
2022/06/21 07:37:23;;;;;;;;;;;;;;;15.33;60.62;101132.13;5066742;28;19960;-78
2022/06/21 07:39:55;;;;;;;;;;;;;;;15.39;62.04;101131.94;5064828;28;19974;-78
2022/06/21 07:42:23;;;;;;;;;;;;;;;15.40;61.91;101136.22;5066339;28;19932;-78
2022/06/21 07:45:00;;;;;;;;;;;;;;;15.38;62.00;101143.28;5071404;28;20410;-78
2022/06/21 07:47:32;;;;;;;;;;;;;;;15.44;60.16;101145.69;5068542;28;20287;-78
2022/06/21 07:50:10;;;;;;;;;;;;;;;15.53;61.74;101134.03;5065819;28;19921;-79
2022/06/21 07:52:40;;;;;;;;;;;;;;;15.56;61.77;101126.09;5062314;28;20062;-78
2022/06/21 07:55:11;;;;;;;;;;;;;;;15.53;61.00;101118.34;5067536;28;19925;-78
2022/06/21 07:57:39;;;;;;;;;;;;;;;15.53;60.84;101118.34;5068509;28;19958;-78
2022/06/21 08:00:16;;;;;;;;;;;;;;;15.59;59.92;101113.75;5061597;28;19929;-78
2022/06/21 08:08:33;;;;;;;;;;;;;;;15.80;61.92;101089.41;5074405;28;19927;-78
2022/06/21 08:11:07;;;;;;;;;;;;;;;15.83;60.75;101091.94;5071098;28;20330;-78
2022/06/21 08:13:33;;;;;;;;;;;;;;;15.76;60.32;101079.97;5066010;28;19965;-77
2022/06/21 08:16:18;;;;;;;;;;;;;;;15.77;59.47;101067.72;5064709;28;20628;-77
2022/06/21 08:18:46;;;;;;;;;;;;;;;15.81;59.57;101064.91;5054311;28;19928;-77
2022/06/21 08:21:16;;;;;;;;;;;;;;;15.80;59.51;101062.38;5065724;28;20004;-77
2022/06/21 08:23:54;;;;;;;;;;;;;;;15.86;59.25;101052.50;5061856;28;19960;-77
2022/06/21 08:26:24;;;;;;;;;;;;;;;15.90;58.38;101046.22;5065854;28;19909;-77
2022/06/21 08:28:56;;;;;;;;;;;;;;;15.93;58.80;101053.97;5070093;28;19920;-77
2022/06/21 08:31:29;;;;;;;;;;;;;;;15.95;59.65;101057.41;5063409;28;19995;-76
2022/06/21 08:33:59;;;;;;;;;;;;;;;15.96;57.32;101048.59;5067148;28;19965;-76
2022/06/21 08:36:32;;;;;;;;;;;;;;;16.02;58.86;101034.41;5062823;28;19974;-76
2022/06/21 08:39:17;;;;;;;;;;;;;;;16.04;59.16;101023.88;5066021;28;19919;-76
2022/06/21 08:42:01;;;;;;;;;;;;;;;16.03;58.32;101014.31;5065474;28;19920;-76
2022/06/21 08:44:29;;;;;;;;;;;;;;;16.09;59.07;101000.97;5065667;28;19920;-76
2022/06/21 08:46:58;;;;;;;;;;;;;;;16.10;58.08;100997.44;5067175;28;19944;-78
2022/06/21 08:49:26;;;;;;;;;;;;;;;16.10;56.54;100990.44;5065584;28;20283;-79
2022/06/21 08:52:10;;;;;;;;;;;;;;;16.06;56.31;100990.59;5070083;28;20003;-79
2022/06/21 08:54:35;;;;;;;;;;;;;;;16.16;55.42;100984.09;5063490;28;19934;-78
2022/06/21 08:57:19;;;;;;;;;;;;;;;16.16;55.46;100982.31;5063920;28;20290;-78
2022/06/21 08:59:47;;;;;;;;;;;;;;;16.20;53.30;100978.66;5066719;28;19916;-77
2022/06/21 09:02:18;;;;;;;;;;;;;;;16.23;58.04;100967.16;5059641;28;19936;-77
2022/06/21 09:04:53;;;;;;;;;;;;;;;16.19;53.11;100953.38;5063384;28;19925;-77
2022/06/21 09:07:30;;;;;;;;;;;;;;;16.19;53.49;100957.75;5062729;28;19927;-77
2022/06/21 09:09:55;;;;;;;;;;;;;;;16.21;51.86;100962.00;5066303;28;19955;-78
2022/06/21 09:12:28;;;;;;;;;;;;;;;16.22;51.51;100968.97;5061022;28;19920;-77
2022/06/21 09:14:54;;;;;;;;;;;;;;;16.26;53.21;100972.28;5063264;28;19924;-77
2022/06/21 09:17:20;;;;;;;;;;;;;;;16.31;51.55;100965.94;5065330;28;19920;-76
2022/06/21 09:19:57;;;;;;;;;;;;;;;16.35;52.62;100964.06;5068201;28;21244;-76
2022/06/21 09:22:31;;;;;;;;;;;;;;;16.37;52.61;100967.47;5061985;28;19920;-76
2022/06/21 09:25:15;;;;;;;;;;;;;;;16.40;53.96;100968.19;5071403;28;19931;-75
2022/06/21 09:27:43;;;;;;;;;;;;;;;16.42;55.30;100962.88;5065699;28;19920;-76
2022/06/21 09:30:08;;;;;;;;;;;;;;;16.48;51.82;100962.63;5071870;28;20302;-76
2022/06/21 09:32:41;;;;;;;;;;;;;;;16.48;50.75;100973.13;5077985;28;19923;-75
2022/06/21 09:35:19;;;;;;;;;;;;;;;16.50;51.25;100977.38;5066518;28;20299;-76
2022/06/21 09:38:02;;;;;;;;;;;;;;;16.52;52.03;100975.53;5072466;28;19916;-76
2022/06/21 09:40:32;;;;;;;;;;;;;;;16.58;52.23;100973.59;5066806;28;20444;-76
2022/06/21 09:43:11;;;;;;;;;;;;;;;16.60;52.40;100980.47;5064897;28;20019;-76
2022/06/21 09:45:43;;;;;;;;;;;;;;;16.65;53.23;100988.13;5063735;28;20441;-76
2022/06/21 09:48:08;;;;;;;;;;;;;;;16.68;51.71;100991.47;5067283;28;19925;-77
2022/06/21 09:50:34;;;;;;;;;;;;;;;16.70;51.65;100997.53;5079690;28;19918;-77
2022/06/21 09:53:09;;;;;;;;;;;;;;;16.73;52.09;101001.84;5081104;28;19917;-77
2022/06/21 09:55:41;;;;;;;;;;;;;;;16.82;52.14;101009.28;5088790;28;19920;-77
2022/06/21 09:58:29;;;;;;;;;;;;;;;16.79;51.06;100997.16;5085159;28;19928;-77
2022/06/21 10:00:55;;;;;;;;;;;;;;;16.85;51.41;100994.25;5066535;28;19921;-77
2022/06/21 10:03:23;;;;;;;;;;;;;;;16.81;51.37;100997.97;5075191;28;19931;-77
2022/06/21 10:06:08;;;;;;;;;;;;;;;16.86;51.01;100997.75;5077520;28;19917;-77
2022/06/21 10:08:55;;;;;;;;;;;;;;;16.90;51.17;100988.84;5065592;28;20008;-77
2022/06/21 10:11:20;;;;;;;;;;;;;;;16.90;52.50;100983.59;5074470;28;19928;-77
2022/06/21 10:14:04;;;;;;;;;;;;;;;16.95;50.34;100990.34;5070377;28;19920;-77
2022/06/21 10:16:48;;;;;;;;;;;;;;;16.98;51.25;100989.34;5086899;28;19916;-77
2022/06/21 10:19:20;;;;;;;;;;;;;;;16.96;50.91;100972.81;5074963;28;19927;-77
2022/06/21 10:22:12;;;;;;;;;;;;;;;16.95;51.07;100968.47;5081942;28;20021;-77
2022/06/21 10:24:38;;;;;;;;;;;;;;;16.99;50.88;100970.06;5076139;28;19954;-77
2022/06/21 10:27:03;;;;;;;;;;;;;;;17.05;52.08;100982.91;5068334;28;19956;-77
2022/06/21 10:29:31;;;;;;;;;;;;;;;17.08;51.67;100978.34;5077263;28;20358;-77
2022/06/21 10:32:08;;;;;;;;;;;;;;;17.12;50.83;100970.34;5088460;28;19952;-77
2022/06/21 10:34:49;;;;;;;;;;;;;;;17.16;50.85;100971.91;5074130;28;19966;-77
2022/06/21 10:37:14;;;;;;;;;;;;;;;17.17;52.29;100981.50;5076934;28;19995;-77
2022/06/21 10:39:56;;;;;;;;;;;;;;;17.20;51.84;100978.75;5075421;28;19924;-77
2022/06/21 10:45:11;;;;;;;;;;;;;;;17.24;52.54;100968.03;5075833;28;19927;-77
2022/06/21 10:47:54;;;;;;;;;;;;;;;17.32;51.85;100957.19;5073493;28;19920;-77
2022/06/21 10:50:20;;;;;;;;;;;;;;;17.32;52.34;100968.53;5064476;28;20142;-77
2022/06/21 10:52:48;;;;;;;;;;;;;;;17.39;53.05;100971.72;5077382;28;19916;-77
2022/06/21 10:55:46;;;;;;;;;;;;;;;17.33;50.96;100956.25;5077729;28;20272;-76
2022/06/21 10:58:30;;;;;;;;;;;;;;;17.39;52.30;100953.34;5037848;28;20359;-77
2022/06/21 11:01:17;;;;;;;;;;;;;;;17.42;52.99;100953.19;5073740;28;20386;-82
2022/06/21 11:03:42;;;;;;;;;;;;;;;17.43;52.86;100945.28;5081021;28;19924;-82
2022/06/21 11:06:26;;;;;;;;;;;;;;;17.46;51.46;100932.00;5064050;28;19935;-82
2022/06/21 11:08:54;;;;;;;;;;;;;;;17.43;52.26;100928.66;5068623;28;19912;-82
2022/06/21 11:11:43;;;;;;;;;;;;;;;17.46;51.93;100925.88;5070255;28;19913;-76
2022/06/21 11:14:27;;;;;;;;;;;;;;;17.33;53.44;100925.59;5072006;28;19916;-76
2022/06/21 11:17:01;;;;;;;;;;;;;;;17.48;52.82;100911.75;5061693;28;19916;-76
2022/06/21 11:19:26;;;;;;;;;;;;;;;17.43;51.43;100905.88;5067561;28;20011;-77
2022/06/21 11:22:14;;;;;;;;;;;;;;;17.43;50.78;100910.28;5067202;28;20024;-77
2022/06/21 11:24:46;;;;;;;;;;;;;;;17.36;51.95;100914.94;5069401;28;20388;-76
2022/06/21 11:27:17;;;;;;;;;;;;;;;17.39;53.74;100901.69;5065456;28;19917;-76
2022/06/21 11:30:06;;;;;;;;;;;;;;;17.46;54.49;100904.88;5063111;28;19916;-77
2022/06/21 11:32:42;;;;;;;;;;;;;;;17.45;51.84;100900.53;5054479;28;19951;-76
2022/06/21 11:35:14;;;;;;;;;;;;;;;17.38;52.02;100907.03;5070760;28;20401;-79
2022/06/21 11:37:52;;;;;;;;;;;;;;;17.40;52.24;100924.41;5062369;28;19923;-79
2022/06/21 11:40:35;;;;;;;;;;;;;;;17.46;53.11;100920.63;5066275;28;19920;-79
2022/06/21 11:43:04;;;;;;;;;;;;;;;17.47;56.13;100924.97;5083926;28;19934;-79
2022/06/21 11:45:38;;;;;;;;;;;;;;;17.49;52.85;100923.97;5066376;28;19924;-79
2022/06/21 11:48:07;;;;;;;;;;;;;;;17.38;56.71;100922.78;5074255;28;19916;-79
2022/06/21 11:50:44;;;;;;;;;;;;;;;17.53;53.74;100911.56;5077167;28;19912;-79
2022/06/21 11:53:13;;;;;;;;;;;;;;;17.39;55.56;100913.94;5077337;28;20424;-79
2022/06/21 11:55:57;;;;;;;;;;;;;;;17.59;54.38;100904.25;5075730;28;19924;-79
2022/06/21 11:58:35;;;;;;;;;;;;;;;17.58;54.34;100901.66;5068221;28;20058;-79
2022/06/21 12:01:12;;;;;;;;;;;;;;;17.55;53.18;100899.19;5066066;28;19925;-77
2022/06/21 12:03:43;;;;;;;;;;;;;;;17.57;55.33;100899.97;5065934;28;19932;-82
2022/06/21 12:06:29;;;;;;;;;;;;;;;17.54;53.74;100892.22;5068687;28;20307;-82
2022/06/21 12:09:09;;;;;;;;;;;;;;;17.65;53.42;100894.38;5067290;28;20419;-82
2022/06/21 12:11:53;;;;;;;;;;;;;;;17.63;54.40;100896.22;5075753;28;19919;-82
2022/06/21 12:14:45;;;;;;;;;;;;;;;17.61;54.34;100898.94;5064970;28;19971;-82
2022/06/21 12:17:21;;;;;;;;;;;;;;;17.41;57.34;100889.31;5033746;28;20364;-82
2022/06/21 12:19:50;;;;;;;;;;;;;;;17.68;53.45;100875.84;5063196;28;19970;-82
2022/06/21 12:22:15;;;;;;;;;;;;;;;17.56;54.07;100867.56;5071868;28;19975;-82
2022/06/21 12:24:41;;;;;;;;;;;;;;;17.84;55.00;100874.16;5063648;28;20386;-79
2022/06/21 12:27:10;;;;;;;;;;;;;;;17.66;54.37;100867.16;5055748;28;20297;-79
2022/06/21 12:29:36;;;;;;;;;;;;;;;17.51;58.17;100868.72;5069139;28;20399;-79
2022/06/21 12:32:01;;;;;;;;;;;;;;;17.65;55.32;100865.50;5066425;28;19967;-79
2022/06/21 12:34:47;;;;;;;;;;;;;;;17.58;56.49;100859.66;5068358;28;20372;-79
2022/06/21 12:37:33;;;;;;;;;;;;;;;17.83;53.01;100854.09;5070794;28;19977;-79
2022/06/21 12:39:58;;;;;;;;;;;;;;;17.85;51.57;100842.56;5062795;28;19923;-79
2022/06/21 12:42:42;;;;;;;;;;;;;;;17.87;52.03;100848.59;5069136;28;19920;-79
2022/06/21 12:45:14;;;;;;;;;;;;;;;18.11;52.06;100841.25;5071940;28;19921;-79
2022/06/21 12:47:58;;;;;;;;;;;;;;;18.00;52.11;100825.16;5066907;28;19920;-79
2022/06/21 12:50:29;;;;;;;;;;;;;;;18.10;51.16;100829.88;5060638;28;19908;-78
2022/06/21 12:53:10;;;;;;;;;;;;;;;18.03;50.88;100830.28;5068963;28;20006;-79
2022/06/21 12:55:35;;;;;;;;;;;;;;;17.96;54.28;100834.97;5071443;28;19995;-79
2022/06/21 12:58:00;;;;;;;;;;;;;;;18.09;51.68;100824.72;5084124;28;20007;-79
2022/06/21 13:00:25;;;;;;;;;;;;;;;17.94;54.32;100823.72;5071068;28;19928;-79
2022/06/21 13:02:51;;;;;;;;;;;;;;;17.83;55.94;100826.00;5067423;28;19919;-79
2022/06/21 13:05:31;;;;;;;;;;;;;;;18.11;51.45;100821.06;5069068;28;20294;-79
2022/06/21 13:08:15;;;;;;;;;;;;;;;17.99;53.44;100826.94;5065670;28;19924;-79
2022/06/21 13:10:59;;;;;;;;;;;;;;;18.06;53.29;100828.34;5064111;28;19995;-79
2022/06/21 13:13:31;;;;;;;;;;;;;;;18.11;51.83;100836.84;5067600;28;19948;-79